Time;durP1;ratioP1;P1;durP2;ratioP2;P2;SDS_P1;SDS_P2;PMS_P1;PMS_P2;Temp;Humidity;BMP_temperature;BMP_pressure;BME280_temperature;BME280_humidity;BME280_pressure;Samples;Min_cycle;Max_cycle;Signal;HPM_P1;HPM_P2
2023/01/24 00:00:52;;;;;;;26.23;9.57;;;3.20;99.90;;;;;;5153922;27;20093;-73
2023/01/24 00:03:17;;;;;;;26.00;9.23;;;3.20;99.90;;;;;;5151078;27;20415;-73
2023/01/24 00:05:45;;;;;;;24.20;10.35;;;3.20;99.90;;;;;;5154540;27;20047;-73
2023/01/24 00:08:12;;;;;;;25.20;10.02;;;3.20;99.90;;;;;;5149760;27;20058;-73
2023/01/24 00:10:38;;;;;;;22.55;9.25;;;3.20;99.90;;;;;;5133727;27;20039;-72
2023/01/24 00:13:04;;;;;;;24.35;9.43;;;3.20;99.90;;;;;;5132086;27;20089;-73
2023/01/24 00:15:31;;;;;;;25.55;9.90;;;3.20;99.90;;;;;;5149006;27;20305;-72
2023/01/24 00:17:57;;;;;;;24.80;10.18;;;3.20;99.90;;;;;;5153253;27;20095;-73
2023/01/24 00:20:24;;;;;;;31.55;10.18;;;3.30;99.90;;;;;;5135783;27;20062;-73
2023/01/24 00:22:49;;;;;;;24.83;10.07;;;3.20;99.90;;;;;;5153399;27;20043;-74
2023/01/24 00:25:15;;;;;;;24.20;9.45;;;3.20;99.90;;;;;;5153318;27;20045;-73
2023/01/24 00:27:41;;;;;;;23.38;9.25;;;3.20;99.90;;;;;;5135728;27;20047;-73
2023/01/24 00:30:07;;;;;;;26.15;9.38;;;3.20;99.90;;;;;;5132840;27;20065;-72
2023/01/24 00:32:33;;;;;;;22.02;9.13;;;3.20;99.90;;;;;;5132370;27;20081;-74
2023/01/24 00:34:59;;;;;;;23.00;9.25;;;3.30;99.90;;;;;;5153331;27;20078;-72
2023/01/24 00:37:25;;;;;;;21.90;8.93;;;3.60;99.90;;;;;;5153265;27;20046;-72
2023/01/24 00:39:50;;;;;;;19.05;7.55;;;3.20;99.90;;;;;;5153849;27;20050;-72
2023/01/24 00:42:16;;;;;;;19.83;9.15;;;3.10;99.90;;;;;;5152423;27;20038;-72
2023/01/24 00:44:42;;;;;;;18.92;8.55;;;3.10;99.90;;;;;;5153576;27;20133;-73
2023/01/24 00:47:07;;;;;;;22.20;9.20;;;3.10;99.90;;;;;;5151532;27;20046;-76
2023/01/24 00:49:33;;;;;;;23.45;8.20;;;3.20;99.90;;;;;;5151110;27;20042;-72
2023/01/24 00:51:59;;;;;;;19.98;8.27;;;3.50;99.90;;;;;;5137136;27;20535;-73
2023/01/24 00:54:24;;;;;;;18.02;7.32;;;3.10;99.90;;;;;;5132005;27;20043;-72
2023/01/24 00:56:50;;;;;;;21.23;8.77;;;3.10;99.90;;;;;;5131532;27;20496;-73
2023/01/24 00:59:16;;;;;;;25.10;8.80;;;3.20;99.90;;;;;;5147163;27;20121;-72
2023/01/24 01:01:42;;;;;;;25.58;8.85;;;3.10;99.90;;;;;;5153359;27;20046;-72
2023/01/24 01:04:08;;;;;;;22.33;8.95;;;3.10;99.90;;;;;;5152508;27;20053;-72
2023/01/24 01:06:34;;;;;;;23.45;9.30;;;3.10;99.90;;;;;;5152654;27;20038;-72
2023/01/24 01:09:00;;;;;;;22.65;9.35;;;3.20;99.90;;;;;;5150513;27;20483;-73
2023/01/24 01:11:26;;;;;;;25.55;10.30;;;3.20;99.90;;;;;;5138908;27;20043;-73
2023/01/24 01:13:55;;;;;;;26.30;10.18;;;3.20;99.90;;;;;;5132279;27;20054;-72
2023/01/24 01:16:20;;;;;;;26.13;9.85;;;3.10;99.90;;;;;;5142530;27;20053;-72
2023/01/24 01:18:47;;;;;;;24.80;9.75;;;3.40;99.90;;;;;;5137135;27;20472;-71
2023/01/24 01:21:15;;;;;;;23.70;10.07;;;3.20;99.90;;;;;;5130823;27;20563;-73
2023/01/24 01:23:41;;;;;;;23.27;8.82;;;3.10;99.90;;;;;;5131867;27;20389;-72
2023/01/24 01:26:12;;;;;;;27.98;9.02;;;3.20;99.90;;;;;;5130847;27;20096;-71
2023/01/24 01:28:38;;;;;;;21.55;8.82;;;3.10;99.90;;;;;;5132372;27;20054;-72
2023/01/24 01:31:04;;;;;;;23.70;9.55;;;3.10;99.90;;;;;;5131556;27;20396;-73
2023/01/24 01:33:30;;;;;;;24.98;8.65;;;3.10;99.90;;;;;;5131817;27;20464;-72
2023/01/24 01:35:55;;;;;;;23.77;8.85;;;3.10;99.90;;;;;;5131697;27;20039;-77
2023/01/24 01:38:24;;;;;;;22.38;8.15;;;3.40;99.90;;;;;;5144187;27;20039;-73
2023/01/24 01:40:50;;;;;;;25.10;9.18;;;3.10;99.90;;;;;;5149218;27;20046;-76
2023/01/24 01:43:18;;;;;;;20.65;7.75;;;3.20;99.90;;;;;;5150024;27;20053;-74
2023/01/24 01:45:46;;;;;;;19.08;7.38;;;3.10;99.90;;;;;;5152321;27;20057;-72
2023/01/24 01:48:13;;;;;;;16.80;7.10;;;3.10;99.90;;;;;;5151212;27;20043;-72
2023/01/24 01:50:45;;;;;;;17.70;6.93;;;3.20;99.90;;;;;;5152482;27;20093;-72
2023/01/24 01:53:12;;;;;;;18.00;6.60;;;3.10;99.90;;;;;;5132559;27;20051;-72
2023/01/24 01:55:43;;;;;;;22.23;7.07;;;3.10;99.90;;;;;;5131376;27;20496;-72
2023/01/24 01:58:09;;;;;;;15.57;7.07;;;3.50;99.90;;;;;;5130226;27;20073;-71
2023/01/24 02:00:34;;;;;;;17.30;6.78;;;3.40;99.90;;;;;;5136497;27;20480;-72
2023/01/24 02:05:53;;;;;;;21.15;7.97;;;3.10;99.90;;;;;;5131431;27;20062;-72
2023/01/24 02:08:21;;;;;;;19.42;8.10;;;3.10;99.90;;;;;;5130585;28;20046;-72
2023/01/24 02:13:43;;;;;;;20.67;8.07;;;3.10;99.90;;;;;;5152172;27;20110;-72
2023/01/24 02:16:12;;;;;;;19.52;7.80;;;3.10;99.90;;;;;;5151817;27;20107;-72
2023/01/24 02:18:41;;;;;;;18.25;7.65;;;3.10;99.90;;;;;;5151415;27;20047;-74
2023/01/24 02:21:16;;;;;;;19.35;7.30;;;3.10;99.90;;;;;;5148285;27;20051;-72
2023/01/24 02:24:07;;;;;;;19.42;7.38;;;3.20;99.90;;;;;;5151573;27;20047;-72
2023/01/24 02:26:32;;;;;;;18.75;8.07;;;3.10;99.90;;;;;;5130121;28;20126;-72
2023/01/24 02:29:07;;;;;;;17.23;7.57;;;3.10;99.90;;;;;;5130688;28;20138;-72
2023/01/24 02:32:01;;;;;;;15.70;7.18;;;3.20;99.90;;;;;;5130489;28;20499;-74
2023/01/24 02:34:29;;;;;;;17.90;6.75;;;3.10;99.90;;;;;;5130228;28;20576;-74
2023/01/24 02:36:58;;;;;;;16.08;6.80;;;3.10;99.90;;;;;;5130186;28;20092;-73
2023/01/24 02:39:32;;;;;;;19.73;7.32;;;3.10;99.90;;;;;;5129195;28;20491;-73
2023/01/24 02:42:08;;;;;;;22.95;8.65;;;3.20;99.90;;;;;;5129700;28;20482;-72
2023/01/24 02:44:36;;;;;;;15.85;7.40;;;3.10;99.90;;;;;;5130703;28;20039;-73
2023/01/24 02:47:03;;;;;;;23.58;7.90;;;3.20;99.90;;;;;;5145448;27;20053;-78
2023/01/24 02:49:29;;;;;;;17.52;8.00;;;3.10;99.90;;;;;;5151074;27;20041;-74
2023/01/24 02:54:39;;;;;;;15.20;6.40;;;3.10;99.90;;;;;;5130651;28;20049;-73
2023/01/24 02:59:50;;;;;;;16.45;6.85;;;3.10;99.90;;;;;;5151189;27;20050;-73
2023/01/24 03:02:15;;;;;;;16.85;6.72;;;3.20;99.90;;;;;;5132144;27;20049;-71
2023/01/24 03:04:41;;;;;;;18.83;6.80;;;3.00;99.90;;;;;;5150878;27;20050;-72
2023/01/24 03:07:07;;;;;;;17.35;7.18;;;3.10;99.90;;;;;;5131624;27;20082;-72
2023/01/24 03:09:38;;;;;;;16.70;6.75;;;3.10;99.90;;;;;;5149517;27;20058;-72
2023/01/24 03:36:45;;;;;;;14.43;5.05;;;3.00;99.90;;;;;;5153842;27;20103;-72
2023/01/24 03:41:55;;;;;;;11.80;5.07;;;3.00;99.90;;;;;;5132603;27;20484;-73
2023/01/24 03:44:21;;;;;;;15.38;5.82;;;3.10;99.90;;;;;;5132922;27;20047;-72
2023/01/24 03:46:47;;;;;;;12.45;4.93;;;3.20;99.90;;;;;;5148960;27;20404;-72
2023/01/24 03:49:12;;;;;;;;;;;3.00;99.90;;;;;;5135422;27;20087;-71
2023/01/24 03:54:22;;;;;;;10.80;4.28;;;3.00;99.90;;;;;;5153647;27;20051;-72
2023/01/24 03:56:48;;;;;;;14.10;4.72;;;2.90;99.90;;;;;;5127437;27;20107;-72
2023/01/24 03:59:14;;;;;;;13.10;4.78;;;2.90;99.90;;;;;;5132590;27;20062;-74
2023/01/24 04:01:39;;;;;;;12.18;5.00;;;2.90;99.90;;;;;;5139196;27;20413;-72
2023/01/24 04:04:05;;;;;;;15.60;5.72;;;2.90;99.90;;;;;;5153596;27;20062;-72
2023/01/24 04:06:31;;;;;;;15.93;5.25;;;2.90;99.90;;;;;;5148111;27;20051;-72
2023/01/24 04:08:57;;;;;;;;;;;2.90;99.90;;;;;;5133613;27;20396;-72
2023/01/24 04:11:23;;;;;;;10.38;4.88;;;3.00;99.90;;;;;;5131616;27;19923;-72
2023/01/24 04:13:48;;;;;;;12.00;5.10;;;2.90;99.90;;;;;;5132699;27;20476;-72
2023/01/24 04:16:14;;;;;;;11.40;4.25;;;2.90;99.90;;;;;;5132479;27;20039;-72
2023/01/24 04:18:40;;;;;;;14.02;4.90;;;2.90;99.90;;;;;;5139800;27;20523;-76
2023/01/24 04:21:06;;;;;;;;;;;3.00;99.90;;;;;;5153474;27;20046;-72
2023/01/24 04:23:31;;;;;;;13.27;4.57;;;2.90;99.90;;;;;;5147011;27;19919;-72
2023/01/24 04:25:59;;;;;;;11.43;5.03;;;2.90;99.90;;;;;;5132477;27;20079;-74
2023/01/24 04:28:25;;;;;;;11.82;4.80;;;3.00;99.90;;;;;;5126299;27;20483;-73
2023/01/24 04:30:59;;;;;;;13.90;5.00;;;2.90;99.90;;;;;;5135070;27;20061;-74
2023/01/24 04:33:25;;;;;;;12.55;4.80;;;2.90;99.90;;;;;;5152634;27;20487;-72
2023/01/24 04:35:51;;;;;;;13.18;5.50;;;2.90;99.90;;;;;;5153189;27;20050;-75
2023/01/24 04:38:17;;;;;;;12.00;5.10;;;3.00;99.90;;;;;;5150247;27;20042;-73
2023/01/24 04:40:42;;;;;;;11.48;5.20;;;2.90;99.90;;;;;;5145186;27;20038;-72
2023/01/24 04:43:08;;;;;;;13.40;5.30;;;2.90;99.90;;;;;;5152217;27;20087;-72
2023/01/24 04:45:34;;;;;;;12.00;4.55;;;2.90;99.90;;;;;;5152696;27;20043;-73
2023/01/24 04:48:00;;;;;;;11.40;5.22;;;3.00;99.90;;;;;;5152754;27;20045;-73
2023/01/24 04:50:25;;;;;;;15.13;5.15;;;3.00;99.90;;;;;;5134156;27;20499;-73
2023/01/24 04:52:51;;;;;;;11.98;4.75;;;2.90;99.90;;;;;;5134047;27;20043;-72
2023/01/24 04:55:17;;;;;;;10.65;4.07;;;3.20;99.90;;;;;;5152381;27;20039;-72
2023/01/24 04:57:43;;;;;;;12.05;4.82;;;2.90;99.90;;;;;;5138818;27;20085;-72
2023/01/24 05:00:09;;;;;;;12.55;4.70;;;2.90;99.90;;;;;;5151026;27;20093;-72
2023/01/24 05:02:37;;;;;;;;;;;2.90;99.90;;;;;;5152061;27;20055;-73
2023/01/24 05:05:03;;;;;;;12.52;5.15;;;2.80;99.90;;;;;;5152910;27;19919;-74
2023/01/24 05:07:29;;;;;;;10.95;4.30;;;2.80;99.90;;;;;;5151336;27;20054;-72
2023/01/24 05:09:55;;;;;;;13.55;5.55;;;2.80;99.90;;;;;;5152498;27;20118;-73
2023/01/24 05:12:20;;;;;;;11.70;4.55;;;2.80;99.90;;;;;;5150957;27;20046;-74
2023/01/24 05:14:46;;;;;;;11.02;4.57;;;2.80;99.90;;;;;;5133903;27;20494;-72
2023/01/24 05:17:11;;;;;;;9.88;4.20;;;2.80;99.90;;;;;;5152560;27;20395;-72
2023/01/24 05:19:37;;;;;;;10.75;4.55;;;2.80;99.90;;;;;;5151718;27;20058;-72
2023/01/24 05:22:03;;;;;;;11.50;4.68;;;2.80;99.90;;;;;;5149963;27;20568;-74
2023/01/24 05:24:28;;;;;;;9.93;4.40;;;2.80;99.90;;;;;;5120540;27;20051;-71
2023/01/24 05:26:54;;;;;;;11.95;4.85;;;2.80;99.90;;;;;;5130722;27;20495;-72
2023/01/24 05:29:20;;;;;;;11.05;4.45;;;3.30;99.90;;;;;;5130923;27;20514;-72
2023/01/24 05:31:46;;;;;;;12.25;4.90;;;2.80;99.90;;;;;;5131553;27;20043;-74
2023/01/24 05:34:11;;;;;;;11.43;4.93;;;2.80;99.90;;;;;;5131227;27;20120;-73
2023/01/24 05:36:37;;;;;;;14.32;5.75;;;2.80;99.90;;;;;;5141809;27;20057;-73
2023/01/24 05:39:03;;;;;;;9.52;4.57;;;2.80;99.90;;;;;;5151687;27;20039;-74
2023/01/24 05:41:29;;;;;;;13.80;5.07;;;3.00;99.90;;;;;;5129625;27;20092;-72
2023/01/24 05:43:54;;;;;;;12.55;4.88;;;3.40;99.90;;;;;;5131631;27;20043;-73
2023/01/24 05:46:21;;;;;;;10.77;4.53;;;2.80;99.90;;;;;;5138688;27;20047;-72
2023/01/24 05:48:48;;;;;;;13.30;4.80;;;2.80;99.90;;;;;;5130961;27;20043;-73
2023/01/24 05:51:16;;;;;;;11.60;4.45;;;3.10;99.90;;;;;;5130648;27;20043;-72
2023/01/24 05:53:42;;;;;;;13.27;5.25;;;2.80;99.90;;;;;;5137107;27;20091;-72
2023/01/24 05:56:16;;;;;;;14.60;5.60;;;2.80;99.90;;;;;;5150821;27;20050;-73
2023/01/24 05:58:44;;;;;;;13.20;5.05;;;2.70;99.90;;;;;;5151150;27;20504;-71
2023/01/24 06:01:17;;;;;;;15.15;5.95;;;2.80;99.90;;;;;;5131721;27;20086;-74
2023/01/24 06:03:44;;;;;;;13.43;5.32;;;2.80;99.90;;;;;;5131980;27;20156;-72
2023/01/24 06:06:12;;;;;;;10.68;5.00;;;2.80;99.90;;;;;;5151132;27;20043;-72
2023/01/24 06:08:38;;;;;;;13.60;5.32;;;3.10;99.90;;;;;;5148494;27;20050;-72
2023/01/24 06:11:07;;;;;;;13.32;5.47;;;2.70;99.90;;;;;;5129769;27;20042;-73
2023/01/24 06:13:33;;;;;;;15.07;5.80;;;2.70;99.90;;;;;;5151065;27;20046;-72
2023/01/24 06:16:09;;;;;;;21.98;6.25;;;2.80;99.90;;;;;;5151672;27;20496;-72
2023/01/24 06:18:34;;;;;;;12.60;5.20;;;2.70;99.90;;;;;;5115517;27;20058;-72
2023/01/24 06:21:33;;;;;;;15.68;5.13;;;2.70;99.90;;;;;;5151363;27;20046;-74
2023/01/24 06:23:59;;;;;;;13.55;5.00;;;2.70;99.90;;;;;;5151792;27;20051;-72
2023/01/24 06:26:25;;;;;;;;;;;2.70;99.90;;;;;;5150860;27;20103;-72
2023/01/24 06:28:51;;;;;;;10.90;5.10;;;2.70;99.90;;;;;;5151334;27;20260;-72
2023/01/24 06:31:42;;;;;;;11.55;5.38;;;2.60;99.90;;;;;;5130822;28;20050;-72
2023/01/24 06:34:24;;;;;;;12.90;5.40;;;2.60;99.90;;;;;;5136223;27;20043;-72
2023/01/24 06:37:08;;;;;;;12.48;5.15;;;2.60;99.90;;;;;;5150935;27;20395;-72
2023/01/24 06:39:36;;;;;;;13.88;5.55;;;3.00;99.90;;;;;;5117506;28;20376;-74
2023/01/24 06:42:02;;;;;;;11.00;4.35;;;2.60;99.90;;;;;;5129969;28;20047;-71
2023/01/24 06:44:28;;;;;;;10.90;4.93;;;2.60;99.90;;;;;;5117165;27;20403;-72
2023/01/24 06:46:53;;;;;;;15.63;5.38;;;2.60;99.90;;;;;;5130859;28;20057;-72
2023/01/24 06:49:19;;;;;;;11.13;4.95;;;2.70;99.90;;;;;;5130408;28;20480;-73
2023/01/24 06:51:52;;;;;;;13.60;5.32;;;2.60;99.90;;;;;;5111430;28;20055;-73
2023/01/24 06:54:18;;;;;;;14.05;6.07;;;2.70;99.90;;;;;;5135467;27;20121;-72
2023/01/24 06:56:44;;;;;;;13.82;5.65;;;2.60;99.90;;;;;;5134025;27;20142;-72
2023/01/24 06:59:09;;;;;;;13.27;5.45;;;3.40;99.90;;;;;;5137211;27;20118;-71
2023/01/24 07:01:35;;;;;;;14.13;5.45;;;2.80;99.90;;;;;;5136027;27;20046;-72
2023/01/24 07:04:01;;;;;;;15.00;4.88;;;2.70;99.90;;;;;;5154898;27;20046;-73
2023/01/24 07:06:26;;;;;;;15.23;5.78;;;3.00;99.90;;;;;;5154016;27;20046;-72
2023/01/24 07:08:52;;;;;;;12.00;4.90;;;2.60;99.90;;;;;;5124604;27;20039;-73
2023/01/24 07:11:18;;;;;;;12.93;5.25;;;2.60;99.90;;;;;;5133491;27;20116;-73
2023/01/24 07:13:44;;;;;;;11.77;5.22;;;2.60;99.90;;;;;;5133563;27;20039;-75
2023/01/24 07:16:10;;;;;;;11.63;5.15;;;2.60;99.90;;;;;;5146074;27;20432;-74
2023/01/24 07:18:36;;;;;;;10.40;5.15;;;2.60;99.90;;;;;;5153978;27;20107;-73
2023/01/24 07:21:05;;;;;;;13.27;5.20;;;2.60;99.90;;;;;;5148214;27;20066;-73
2023/01/24 07:23:32;;;;;;;13.30;5.50;;;2.60;99.90;;;;;;5142842;27;20066;-73
2023/01/24 07:25:59;;;;;;;13.43;5.68;;;2.60;99.90;;;;;;5136205;27;20051;-75
2023/01/24 07:28:25;;;;;;;13.82;5.00;;;2.60;99.90;;;;;;5133716;27;20043;-69
2023/01/24 07:30:53;;;;;;;;;;;2.60;99.90;;;;;;5137010;27;20046;-66
2023/01/24 07:33:20;;;;;;;11.75;5.13;;;2.60;99.90;;;;;;5136511;27;19925;-71
2023/01/24 07:35:46;;;;;;;13.57;5.40;;;2.70;99.90;;;;;;5133289;27;20046;-72
2023/01/24 07:38:12;;;;;;;15.93;5.97;;;2.70;99.90;;;;;;5148670;27;20062;-69
2023/01/24 07:40:38;;;;;;;12.13;5.07;;;2.80;99.90;;;;;;5153948;27;20055;-71
2023/01/24 07:43:04;;;;;;;10.75;5.05;;;2.70;99.90;;;;;;5144387;27;20043;-72
2023/01/24 07:45:30;;;;;;;;;;;2.70;99.90;;;;;;5135039;27;20559;-73
2023/01/24 07:47:57;;;;;;;12.55;5.65;;;2.60;99.90;;;;;;5144276;27;20005;-72
2023/01/24 07:50:27;;;;;;;13.70;5.50;;;2.50;99.90;;;;;;5134005;27;20097;-73
2023/01/24 07:52:53;;;;;;;13.65;5.97;;;2.50;99.90;;;;;;5132107;27;20553;-72
2023/01/24 07:55:20;;;;;;;14.60;5.85;;;2.50;99.90;;;;;;5115112;27;20047;-71
2023/01/24 07:57:45;;;;;;;11.73;5.75;;;2.50;99.90;;;;;;5131991;27;20102;-71
2023/01/24 08:00:13;;;;;;;14.65;5.97;;;2.50;99.90;;;;;;5133165;27;20110;-71
2023/01/24 08:02:39;;;;;;;12.60;5.45;;;2.40;99.90;;;;;;5135858;27;20747;-74
2023/01/24 08:05:05;;;;;;;;;;;2.40;99.90;;;;;;5142089;27;20504;-72
2023/01/24 08:07:31;;;;;;;14.82;5.65;;;2.40;99.90;;;;;;5132029;27;20376;-78
2023/01/24 08:09:57;;;;;;;13.65;5.35;;;2.40;99.90;;;;;;5133228;27;20091;-73
2023/01/24 08:12:23;;;;;;;15.18;6.60;;;3.00;99.90;;;;;;5113936;27;20072;-73
2023/01/24 08:14:48;;;;;;;15.95;7.00;;;2.40;99.90;;;;;;5132431;27;20082;-71
2023/01/24 08:17:15;;;;;;;15.07;5.93;;;2.40;99.90;;;;;;5133124;27;20043;-71
2023/01/24 08:19:40;;;;;;;;;;;2.80;99.90;;;;;;5097566;27;20054;-73
2023/01/24 08:22:06;;;;;;;13.95;5.95;;;2.50;99.90;;;;;;5137128;27;19926;-72
2023/01/24 08:24:32;;;;;;;13.07;5.45;;;2.50;99.90;;;;;;5121295;27;20043;-76
2023/01/24 08:27:00;;;;;;;12.90;6.18;;;2.50;99.90;;;;;;5151913;27;20046;-72
2023/01/24 08:29:26;;;;;;;14.85;6.07;;;2.50;99.90;;;;;;5151289;27;20054;-72
2023/01/24 08:31:52;;;;;;;14.68;6.15;;;2.50;99.90;;;;;;5138216;27;20134;-74
2023/01/24 08:34:17;;;;;;;15.77;5.95;;;2.70;99.90;;;;;;5138537;27;20108;-73
2023/01/24 08:36:43;;;;;;;15.18;6.50;;;2.50;99.90;;;;;;5151948;27;20042;-73
2023/01/24 08:39:09;;;;;;;15.52;6.15;;;2.60;99.90;;;;;;5153143;27;20477;-73
2023/01/24 08:41:35;;;;;;;12.73;6.60;;;2.50;99.90;;;;;;5151872;27;20050;-79
2023/01/24 08:44:02;;;;;;;13.88;6.22;;;2.60;99.90;;;;;;5151591;27;20054;-71
2023/01/24 08:46:29;;;;;;;12.60;5.72;;;2.60;99.90;;;;;;5142233;27;20572;-71
2023/01/24 08:48:54;;;;;;;13.88;6.10;;;2.60;99.90;;;;;;5131486;27;20870;-71
2023/01/24 08:51:20;;;;;;;13.40;6.25;;;2.60;99.90;;;;;;5131662;27;20054;-71
2023/01/24 08:53:46;;;;;;;15.60;6.20;;;2.60;99.90;;;;;;5145786;27;20125;-73
2023/01/24 08:56:12;;;;;;;13.88;6.00;;;2.60;99.90;;;;;;5145935;27;20059;-72
2023/01/24 08:58:37;;;;;;;12.30;5.93;;;2.60;99.90;;;;;;5142372;27;20504;-73
2023/01/24 09:01:07;;;;;;;15.82;7.00;;;2.60;99.90;;;;;;5152619;27;20035;-72
2023/01/24 09:03:33;;;;;;;12.40;5.60;;;2.60;99.90;;;;;;5151769;27;20412;-72
2023/01/24 09:05:59;;;;;;;13.07;6.55;;;2.60;99.90;;;;;;5130925;27;20056;-74
2023/01/24 09:08:25;;;;;;;13.60;5.80;;;2.60;99.90;;;;;;5134233;27;20131;-71
2023/01/24 09:10:50;;;;;;;15.18;6.10;;;2.80;99.90;;;;;;5156791;27;20038;-72
2023/01/24 09:13:16;;;;;;;15.65;6.45;;;2.60;99.90;;;;;;5159990;27;20503;-72
2023/01/24 09:15:42;;;;;;;13.43;5.82;;;2.60;99.90;;;;;;5151054;27;20083;-71
2023/01/24 09:18:08;;;;;;;13.02;6.13;;;3.20;99.90;;;;;;5151670;27;20130;-71
2023/01/24 09:20:34;;;;;;;13.23;6.20;;;2.60;99.90;;;;;;5152395;27;20453;-73
2023/01/24 09:23:06;;;;;;;14.40;6.30;;;2.60;99.90;;;;;;5150431;27;20046;-74
2023/01/24 09:25:32;;;;;;;13.85;5.97;;;2.60;99.90;;;;;;5150656;27;20506;-71
2023/01/24 09:27:58;;;;;;;14.95;5.88;;;2.60;99.90;;;;;;5140998;27;20046;-72
2023/01/24 09:30:23;;;;;;;15.02;6.07;;;2.70;99.90;;;;;;5144244;27;20047;-73
2023/01/24 09:32:49;;;;;;;14.75;6.03;;;2.70;99.90;;;;;;5150998;27;20039;-72
2023/01/24 09:35:15;;;;;;;12.65;5.53;;;2.60;99.90;;;;;;5152574;27;20511;-71
2023/01/24 09:37:42;;;;;;;14.70;5.97;;;2.60;99.90;;;;;;5151368;27;20095;-74
2023/01/24 09:40:23;;;;;;;12.82;5.45;;;3.00;99.90;;;;;;5152150;27;20051;-73
2023/01/24 09:43:06;;;;;;;12.63;6.28;;;2.60;99.90;;;;;;5150907;27;20119;-73
2023/01/24 09:45:41;;;;;;;11.18;4.85;;;2.60;99.90;;;;;;5150460;27;20053;-72
2023/01/24 09:48:13;;;;;;;14.35;6.13;;;2.60;99.90;;;;;;5134871;27;20050;-71
2023/01/24 09:50:44;;;;;;;15.80;6.95;;;2.60;99.90;;;;;;5136084;27;20043;-77
2023/01/24 09:53:31;;;;;;;12.27;5.55;;;2.60;99.90;;;;;;5151330;27;20035;-72
2023/01/24 09:55:59;;;;;;;14.38;5.75;;;2.70;99.90;;;;;;5150807;27;20507;-74
2023/01/24 09:58:43;;;;;;;12.30;5.93;;;2.60;99.90;;;;;;5151093;27;20099;-71
2023/01/24 10:01:12;;;;;;;13.52;5.75;;;2.60;99.90;;;;;;5151386;27;20487;-71
2023/01/24 10:03:39;;;;;;;15.50;6.43;;;2.60;99.90;;;;;;5152112;27;20095;-71
2023/01/24 10:06:16;;;;;;;14.52;6.35;;;2.60;99.90;;;;;;5132665;27;20058;-71
2023/01/24 10:08:58;;;;;;;14.90;6.38;;;2.60;99.90;;;;;;5150705;27;20039;-74
2023/01/24 10:11:33;;;;;;;12.38;6.28;;;2.60;99.90;;;;;;5150732;27;20051;-75
2023/01/24 10:14:12;;;;;;;12.13;5.38;;;2.70;99.90;;;;;;5134513;27;20388;-71
2023/01/24 10:16:50;;;;;;;13.15;5.53;;;2.70;99.90;;;;;;5150040;27;20441;-71
2023/01/24 10:19:38;;;;;;;15.05;5.85;;;2.70;99.90;;;;;;5151857;27;20395;-71
2023/01/24 10:22:22;;;;;;;12.82;5.50;;;2.70;99.90;;;;;;5150814;27;20552;-72
2023/01/24 10:25:18;;;;;;;12.18;5.43;;;2.70;99.90;;;;;;5151155;27;20041;-72
2023/01/24 10:27:47;;;;;;;11.07;5.28;;;2.70;99.90;;;;;;5139341;27;20051;-74
2023/01/24 10:30:31;;;;;;;13.60;5.78;;;2.70;99.90;;;;;;5149116;27;20081;-72
2023/01/24 10:33:03;;;;;;;14.38;5.75;;;2.70;99.90;;;;;;5148122;27;20038;-72
2023/01/24 10:35:47;;;;;;;15.77;6.35;;;2.80;99.90;;;;;;5148671;27;20495;-71
2023/01/24 10:38:15;;;;;;;12.13;5.18;;;2.70;99.90;;;;;;5156867;27;20099;-71
2023/01/24 10:40:53;;;;;;;13.07;4.95;;;2.70;99.90;;;;;;5156589;27;20035;-73
2023/01/24 10:43:24;;;;;;;14.40;6.22;;;2.70;99.90;;;;;;5154740;27;20050;-71
2023/01/24 10:46:02;;;;;;;12.73;5.90;;;2.70;99.90;;;;;;5168325;27;20045;-70
2023/01/24 10:48:48;;;;;;;12.93;5.68;;;2.70;99.90;;;;;;5137092;27;20050;-73
2023/01/24 10:51:16;;;;;;;12.57;5.88;;;2.70;99.90;;;;;;5148197;27;20130;-70
2023/01/24 10:53:42;;;;;;;14.50;6.28;;;2.70;99.90;;;;;;5143994;27;20563;-71
2023/01/24 10:56:09;;;;;;;14.15;6.03;;;2.70;99.90;;;;;;5152848;27;20054;-72
2023/01/24 10:58:42;;;;;;;12.55;5.32;;;2.70;99.90;;;;;;5142041;27;20046;-73
2023/01/24 11:01:18;;;;;;;12.32;5.82;;;2.70;99.90;;;;;;5139784;27;20452;-71
2023/01/24 11:03:45;;;;;;;14.23;5.80;;;3.00;99.90;;;;;;5136905;27;20052;-72
2023/01/24 11:06:37;;;;;;;11.85;5.40;;;2.70;99.90;;;;;;5154151;27;20205;-71
2023/01/24 11:09:10;;;;;;;14.25;5.68;;;2.70;99.90;;;;;;5154449;27;20047;-71
2023/01/24 11:11:41;;;;;;;12.93;5.45;;;2.80;99.90;;;;;;5150827;27;20114;-72
2023/01/24 11:14:13;;;;;;;13.00;5.35;;;2.80;99.90;;;;;;5153445;27;20117;-72
2023/01/24 11:16:48;;;;;;;11.20;5.15;;;2.80;99.90;;;;;;5154417;27;20068;-71
2023/01/24 11:19:33;;;;;;;10.65;4.63;;;2.80;99.90;;;;;;5153567;27;20103;-71
2023/01/24 11:22:18;;;;;;;11.55;5.50;;;2.70;99.90;;;;;;5144142;27;20054;-71
2023/01/24 11:24:45;;;;;;;11.63;5.57;;;2.70;99.90;;;;;;5159601;27;20117;-73
2023/01/24 11:27:19;;;;;;;11.20;5.38;;;2.80;99.90;;;;;;5173181;27;20050;-71
2023/01/24 11:30:03;;;;;;;15.05;5.88;;;2.70;99.90;;;;;;5174848;27;20038;-73
2023/01/24 11:33:07;;;;;;;13.45;6.30;;;2.70;99.90;;;;;;5174386;27;20121;-71
2023/01/24 11:35:45;;;;;;;13.43;5.60;;;2.80;99.90;;;;;;5143590;27;20510;-71
2023/01/24 11:38:41;;;;;;;15.18;6.88;;;2.90;99.90;;;;;;5173530;27;20050;-71
2023/01/24 11:41:26;;;;;;;14.77;6.65;;;2.70;99.90;;;;;;5171188;27;20161;-71
2023/01/24 11:44:14;;;;;;;14.23;6.38;;;2.70;99.90;;;;;;5162423;27;20047;-71
2023/01/24 11:46:42;;;;;;;13.57;5.85;;;2.70;99.90;;;;;;5163993;27;20059;-72
2023/01/24 11:49:32;;;;;;;13.48;5.40;;;2.70;99.90;;;;;;5170137;27;20081;-71
2023/01/24 11:52:17;;;;;;;11.82;5.25;;;2.80;99.90;;;;;;5171911;27;20042;-72
2023/01/24 11:54:49;;;;;;;10.82;5.32;;;2.80;99.90;;;;;;5163445;27;20073;-71
2023/01/24 11:57:53;;;;;;;11.57;5.75;;;2.80;99.90;;;;;;5154889;27;20488;-72
2023/01/24 12:00:34;;;;;;;10.25;5.10;;;2.80;99.90;;;;;;5166023;27;20406;-72
2023/01/24 12:03:29;;;;;;;10.35;4.75;;;2.80;99.90;;;;;;5157525;27;20514;-72
2023/01/24 12:06:00;;;;;;;12.05;5.25;;;2.90;99.90;;;;;;5134207;27;20500;-71
2023/01/24 12:08:44;;;;;;;11.85;5.32;;;2.80;99.90;;;;;;5147923;27;20151;-71
2023/01/24 12:11:24;;;;;;;10.88;4.85;;;2.90;99.90;;;;;;5132237;27;20050;-72
2023/01/24 12:14:14;;;;;;;16.52;5.72;;;2.90;99.90;;;;;;5144639;27;20153;-71
2023/01/24 12:16:50;;;;;;;13.25;5.80;;;3.00;99.90;;;;;;5140529;27;20391;-71
2023/01/24 12:19:52;;;;;;;12.32;5.15;;;3.00;99.90;;;;;;5162858;27;20064;-71
2023/01/24 12:22:27;;;;;;;11.77;5.63;;;3.00;99.90;;;;;;5162974;27;20046;-72
2023/01/24 12:25:25;;;;;;;15.13;6.05;;;3.00;99.90;;;;;;5170609;27;20049;-77
2023/01/24 12:27:55;;;;;;;14.45;6.80;;;3.00;99.90;;;;;;5133692;27;20061;-73
2023/01/24 12:30:34;;;;;;;15.65;5.15;;;3.00;99.90;;;;;;5157921;27;20435;-73
2023/01/24 12:33:34;;;;;;;16.67;5.63;;;3.00;99.90;;;;;;5154596;27;20520;-72
2023/01/24 12:36:15;;;;;;;11.25;5.20;;;3.00;99.90;;;;;;5172905;27;20038;-76
2023/01/24 12:38:46;;;;;;;11.60;4.88;;;3.00;99.90;;;;;;5153589;27;20437;-72
2023/01/24 12:41:33;;;;;;;12.40;5.40;;;3.00;99.90;;;;;;5170518;27;20137;-72
2023/01/24 12:44:05;;;;;;;;;;;3.00;99.90;;;;;;5172715;27;20390;-72
2023/01/24 12:46:53;;;;;;;17.17;5.32;;;3.00;99.90;;;;;;5154640;27;19966;-71
2023/01/24 12:49:37;;;;;;;12.07;5.10;;;2.90;99.90;;;;;;5154609;27;20114;-72
2023/01/24 12:52:20;;;;;;;13.95;4.47;;;2.90;99.90;;;;;;5139286;27;20116;-71
2023/01/24 12:54:54;;;;;;;15.27;6.00;;;2.90;99.90;;;;;;5146948;27;20043;-71
2023/01/24 12:57:28;;;;;;;14.02;5.95;;;2.90;99.90;;;;;;5162666;27;20052;-70
2023/01/24 12:59:53;;;;;;;14.70;5.63;;;2.90;99.90;;;;;;5173555;27;20042;-71
2023/01/24 13:02:56;;;;;;;13.73;5.10;;;2.90;99.90;;;;;;5154936;27;20043;-71
2023/01/24 13:05:57;;;;;;;12.65;5.68;;;2.90;99.90;;;;;;5152523;27;20093;-72
2023/01/24 13:08:47;;;;;;;13.65;5.18;;;2.90;99.90;;;;;;5150683;27;20083;-73
2023/01/24 13:11:23;;;;;;;12.70;5.78;;;3.00;99.90;;;;;;5153689;27;20042;-71
2023/01/24 13:14:23;;;;;;;13.75;5.93;;;3.00;99.90;;;;;;5153386;27;20069;-72
2023/01/24 13:16:55;;;;;;;12.85;6.13;;;3.00;99.90;;;;;;5145982;27;20479;-72
2023/01/24 13:19:44;;;;;;;10.88;5.75;;;3.00;99.90;;;;;;5142641;27;20058;-72
2023/01/24 13:22:13;;;;;;;11.63;5.10;;;3.00;99.90;;;;;;5138936;27;20042;-72
2023/01/24 13:24:56;;;;;;;11.95;6.13;;;2.90;99.90;;;;;;5152286;27;20078;-71
2023/01/24 13:27:40;;;;;;;11.65;5.13;;;3.00;99.90;;;;;;5149551;27;20091;-71
2023/01/24 13:30:09;;;;;;;13.70;6.05;;;3.00;99.90;;;;;;5132340;27;20121;-71
2023/01/24 13:32:38;;;;;;;13.30;6.10;;;3.00;99.90;;;;;;5131458;27;20050;-71
2023/01/24 13:35:15;;;;;;;15.02;6.30;;;2.90;99.90;;;;;;5138598;27;20176;-74
2023/01/24 13:37:41;;;;;;;14.55;5.72;;;3.00;99.90;;;;;;5152081;27;20123;-74
2023/01/24 13:40:13;;;;;;;14.90;5.95;;;2.90;99.90;;;;;;5138913;27;20085;-71
2023/01/24 13:42:39;;;;;;;13.07;5.88;;;2.90;99.90;;;;;;5120126;27;20498;-71
2023/01/24 13:45:24;;;;;;;13.27;6.28;;;2.80;99.90;;;;;;5151781;27;20039;-71
2023/01/24 13:47:50;;;;;;;14.73;6.45;;;2.90;99.90;;;;;;5151861;27;20058;-73
2023/01/24 13:50:18;;;;;;;13.15;6.40;;;2.70;99.90;;;;;;5151539;27;20549;-72